MET'MAP v2.0
soon released !

Expected late october,
this new version will be
more efficient, smarter,
and hosted on a brand new
server x3 powerfull...
...and still free !


Not compatible ?
Try the mobile version !

LOG IN : | Subscribe | Disclaimer | Who is Orbifly ? |
ICAO code :
Legend : VFR Marginal VFR IFR Intensive IFR Very Intensive IFR
Visi :
Ceiling :
>= 8 km
>= 3000ft
5 to 8 km
1000 to 3000 ft
1500m to 5 km
500 to 1000 ft
800 to 1500m
200 to 500 ft
< 800m
< 200 ft

METAR - LXGB Gibraltar - 22 Sep 2019 11:49 UTC - Data Source NOAA   



- Airport Elevation : 15 ft
- IATA code : GIB
- No reported NOTAMs.


LXGB - Gibraltar

Latest METAR recorded : 2015/08/11 07:50 LXGB 110750Z 27008KT 9999 FEW024 BKN190 25/20 Q1013 NOSIG
TAF TAF LXGB
Valid from the 22 at 09:00 until the 22 at 18:00 UTC


220731Z 2209/2218 24012KT 9999 BKN025
TEMPO 2210/2215 SCT022
BECMG 2213/2216 CAVOK

Source NOAA


MET'MAP, your aeronautical weather chart ! - Copyright ORBIFLY December 2007

Programming & Development : Alexandra Zaïnal
Co-Developer : Marc-Olivier Méhu
Technical & hardware support : Manuel Goepfert
Concept & Financing : Baudouin d'Aumeries